18A

Franklin County Airport

Canon, Georgia, USA
METAR K18A 261315Z AUTO 00000KT 10SM OVC049 17/13 A2989 RMK AO2 T01670126 TSNO
Observed Flight Rules
Apr-26 @ 13:15 UTC (6 minutes ago) Visual Flight Rules
Visibility Clouds
10 miles
  • Overcast at 4,900' AGL
Temperatures Readings
Current 17°C / 63°F
Dewpoint 13°C / 55°F
Humidity 77%
Altimeter 29.89" Hg
Pressure 1012 hPa
Elevation 271
METAR K18A 261315Z AUTO 00000KT 10SM OVC049 17/13 A2989 RMK AO2 T01670126 TSNO
Observed Flight Rules
Apr-26 @ 13:15 UTC
(6 minutes ago)
VFR
Clouds
  • Overcast at 4,900' AGL
Temperature Dewpoint
17°C / 63°F 13°C / 55°F
Humidity Altimeter Pressure
77% 29.89" Hg 1012 hPa